VULCN41 KBHM-CYYZ
Flight info
| Callsign | VULCN41 |
|---|---|
| Flight time | N/A |
| Altitude | 26000 |
| Route | KBHM/24 DCT UNTOW DCT CREEP Q139 RINTE DCT QWERI DCT KNOOK DCT ERBEL DCT NUBER DCT IKBAT DCT ILANI DCT DULPA DCT QWERI NUBER6 CYYZ/I05 |
| Aircraft | K35R/H-SDE2E3FGHIJ1RWXYZ/LB1 |
Departure
| Time | 2026-04-25 02:09 |
|---|---|
| Airport | Birmingham-Shuttlesworth International Airport (KBHM) |
Arrival
| Time | N/A |
|---|---|
| Airport | Toronto Pearson International Airport (CYYZ) |
| Time | Latitude | Longitude | Altitude | Speed | Heading |
|---|---|---|---|---|---|
| 2026-04-25 01:53 | 33.56767 | -86.75466 | 673 ft | 0 kts | 144° |
| 2026-04-25 02:04 | 33.56745 | -86.75443 | 674 ft | 8 kts | 128° |
| 2026-04-25 02:04 | 33.56757 | -86.75373 | 675 ft | 12 kts | 56° |
| 2026-04-25 02:04 | 33.56816 | -86.75268 | 671 ft | 13 kts | 63° |
| 2026-04-25 02:04 | 33.56793 | -86.75197 | 674 ft | 10 kts | 134° |
| 2026-04-25 02:05 | 33.56744 | -86.75136 | 677 ft | 11 kts | 135° |
| 2026-04-25 02:05 | 33.56685 | -86.75071 | 676 ft | 12 kts | 139° |
| 2026-04-25 02:05 | 33.56621 | -86.74989 | 671 ft | 14 kts | 125° |
| 2026-04-25 02:05 | 33.56602 | -86.74884 | 675 ft | 13 kts | 83° |
| 2026-04-25 02:06 | 33.56643 | -86.74790 | 672 ft | 13 kts | 54° |
| 2026-04-25 02:06 | 33.56701 | -86.74689 | 675 ft | 18 kts | 56° |
| 2026-04-25 02:06 | 33.56782 | -86.74545 | 673 ft | 22 kts | 56° |
| 2026-04-25 02:06 | 33.56872 | -86.74393 | 674 ft | 23 kts | 53° |
| 2026-04-25 02:07 | 33.56963 | -86.74234 | 673 ft | 24 kts | 55° |
| 2026-04-25 02:07 | 33.57058 | -86.74069 | 675 ft | 24 kts | 56° |
| 2026-04-25 02:07 | 33.57144 | -86.73920 | 673 ft | 17 kts | 57° |
| 2026-04-25 02:07 | 33.57210 | -86.73833 | 673 ft | 10 kts | 14° |
| 2026-04-25 02:08 | 33.57257 | -86.73850 | 673 ft | 0 kts | 324° |
| 2026-04-25 02:08 | 33.57258 | -86.73851 | 673 ft | 2 kts | 324° |
| 2026-04-25 02:08 | 33.57304 | -86.73896 | 674 ft | 15 kts | 313° |
| 2026-04-25 02:09 | 33.57288 | -86.74018 | 671 ft | 20 kts | 232° |
| 2026-04-25 02:09 | 33.57081 | -86.74376 | 674 ft | 101 kts | 236° |
| 2026-04-25 02:09 | 33.56504 | -86.75373 | 674 ft | 184 kts | 236° |
| 2026-04-25 02:09 | 33.55746 | -86.76731 | 1425 ft | 203 kts | 236° |
| 2026-04-25 02:10 | 33.54930 | -86.78176 | 2450 ft | 214 kts | 235° |
| 2026-04-25 02:10 | 33.54043 | -86.79713 | 3232 ft | 242 kts | 234° |
| 2026-04-25 02:10 | 33.52933 | -86.81542 | 3627 ft | 303 kts | 230° |
| 2026-04-25 02:10 | 33.51531 | -86.83738 | 3831 ft | 362 kts | 240° |
| 2026-04-25 02:11 | 33.50917 | -86.86876 | 3924 ft | 416 kts | 269° |
| 2026-04-25 02:11 | 33.51511 | -86.90447 | 4147 ft | 453 kts | 286° |
| 2026-04-25 02:11 | 33.52507 | -86.94092 | 5031 ft | 463 kts | 287° |
| 2026-04-25 02:11 | 33.53489 | -86.97701 | 6361 ft | 460 kts | 287° |
| 2026-04-25 02:12 | 33.54460 | -87.01342 | 7638 ft | 460 kts | 287° |
| 2026-04-25 02:12 | 33.55444 | -87.05034 | 8566 ft | 468 kts | 287° |
| 2026-04-25 02:12 | 33.56784 | -87.08612 | 9384 ft | 477 kts | 302° |
| 2026-04-25 02:12 | 33.59167 | -87.11415 | 10116 ft | 489 kts | 325° |
| 2026-04-25 02:13 | 33.62363 | -87.12861 | 10821 ft | 500 kts | 348° |
| 2026-04-25 02:13 | 33.65848 | -87.12673 | 11552 ft | 510 kts | 12° |
| 2026-04-25 02:13 | 33.69063 | -87.10829 | 12302 ft | 520 kts | 34° |
| 2026-04-25 02:13 | 33.71504 | -87.07602 | 13077 ft | 527 kts | 55° |
| 2026-04-25 02:14 | 33.73331 | -87.03782 | 13916 ft | 527 kts | 60° |
| 2026-04-25 02:14 | 33.75083 | -86.99913 | 14692 ft | 527 kts | 60° |
| 2026-04-25 02:14 | 33.76850 | -86.96041 | 15473 ft | 527 kts | 59° |
| 2026-04-25 02:14 | 33.78627 | -86.92191 | 16225 ft | 528 kts | 59° |
| 2026-04-25 02:15 | 33.80403 | -86.88391 | 16973 ft | 528 kts | 59° |
| 2026-04-25 02:15 | 33.82222 | -86.84557 | 17729 ft | 528 kts | 59° |
| 2026-04-25 02:15 | 33.84059 | -86.80734 | 18491 ft | 528 kts | 58° |
| 2026-04-25 02:15 | 33.85917 | -86.76913 | 19178 ft | 528 kts | 58° |
| 2026-04-25 02:16 | 33.87790 | -86.73110 | 19876 ft | 528 kts | 58° |
| 2026-04-25 02:16 | 33.89682 | -86.69328 | 20593 ft | 527 kts | 58° |
| 2026-04-25 02:16 | 33.91593 | -86.65555 | 21332 ft | 527 kts | 57° |
| 2026-04-25 02:16 | 33.93524 | -86.61801 | 22097 ft | 526 kts | 57° |
| 2026-04-25 02:17 | 33.95471 | -86.58067 | 22858 ft | 526 kts | 57° |
| 2026-04-25 02:17 | 33.97663 | -86.54548 | 23587 ft | 524 kts | 45° |
| 2026-04-25 02:17 | 34.00389 | -86.51642 | 24237 ft | 523 kts | 37° |
| 2026-04-25 02:17 | 34.03313 | -86.49048 | 24934 ft | 521 kts | 33° |
| 2026-04-25 02:18 | 34.06345 | -86.46647 | 25442 ft | 525 kts | 31° |
| 2026-04-25 02:18 | 34.09437 | -86.44316 | 25689 ft | 534 kts | 31° |
| 2026-04-25 02:18 | 34.12673 | -86.41924 | 25805 ft | 544 kts | 30° |
| 2026-04-25 02:18 | 34.16041 | -86.39862 | 25867 ft | 552 kts | 22° |
| 2026-04-25 02:19 | 34.19574 | -86.38049 | 25892 ft | 552 kts | 23° |
| 2026-04-25 02:19 | 34.22984 | -86.35915 | 25917 ft | 553 kts | 28° |
| 2026-04-25 02:19 | 34.26421 | -86.33825 | 25918 ft | 552 kts | 23° |
| 2026-04-25 02:19 | 34.29939 | -86.31941 | 25914 ft | 553 kts | 25° |
| 2026-04-25 02:20 | 34.33339 | -86.29735 | 25918 ft | 553 kts | 27° |
| 2026-04-25 02:20 | 34.36819 | -86.27758 | 25917 ft | 552 kts | 22° |
| 2026-04-25 02:20 | 34.40307 | -86.25780 | 25915 ft | 553 kts | 27° |
| 2026-04-25 02:20 | 34.43695 | -86.23579 | 25896 ft | 553 kts | 25° |
| 2026-04-25 02:21 | 34.47213 | -86.21682 | 25916 ft | 553 kts | 22° |
| 2026-04-25 02:21 | 34.50647 | -86.19583 | 25913 ft | 554 kts | 28° |
| 2026-04-25 02:21 | 34.54076 | -86.17447 | 25898 ft | 553 kts | 23° |
| 2026-04-25 02:21 | 34.57560 | -86.15577 | 25901 ft | 554 kts | 25° |
| 2026-04-25 02:22 | 34.61002 | -86.13348 | 25915 ft | 554 kts | 27° |
| 2026-04-25 02:22 | 34.64430 | -86.11351 | 25917 ft | 553 kts | 22° |
| 2026-04-25 02:22 | 34.67970 | -86.09359 | 25895 ft | 554 kts | 26° |
| 2026-04-25 02:22 | 34.71321 | -86.07154 | 25911 ft | 554 kts | 26° |
| 2026-04-25 02:23 | 34.74830 | -86.05229 | 25917 ft | 554 kts | 22° |
| 2026-04-25 02:23 | 34.78288 | -86.03137 | 25900 ft | 555 kts | 28° |
| 2026-04-25 02:23 | 34.81702 | -86.00962 | 25913 ft | 554 kts | 24° |
| 2026-04-25 02:23 | 34.85238 | -85.99055 | 25902 ft | 554 kts | 24° |
| 2026-04-25 02:24 | 34.88658 | -85.96845 | 25908 ft | 555 kts | 28° |
| 2026-04-25 02:24 | 34.92114 | -85.94783 | 25908 ft | 555 kts | 22° |
| 2026-04-25 02:24 | 34.95632 | -85.92813 | 25917 ft | 555 kts | 26° |
| 2026-04-25 02:24 | 34.99032 | -85.90559 | 25912 ft | 556 kts | 26° |
| 2026-04-25 02:25 | 35.02548 | -85.88596 | 25917 ft | 555 kts | 22° |
| 2026-04-25 02:25 | 35.06017 | -85.86508 | 25916 ft | 556 kts | 27° |
| 2026-04-25 02:25 | 35.09438 | -85.84294 | 25919 ft | 556 kts | 24° |
| 2026-04-25 02:25 | 35.12964 | -85.82379 | 25920 ft | 555 kts | 24° |
| 2026-04-25 02:26 | 35.16381 | -85.80172 | 25916 ft | 556 kts | 28° |
| 2026-04-25 02:26 | 35.19847 | -85.78062 | 25915 ft | 555 kts | 22° |
| 2026-04-25 02:26 | 35.23324 | -85.76120 | 25917 ft | 556 kts | 26° |
| 2026-04-25 02:26 | 35.26722 | -85.73850 | 25923 ft | 556 kts | 27° |
| 2026-04-25 02:27 | 35.30222 | -85.71857 | 25921 ft | 556 kts | 22° |
| 2026-04-25 02:27 | 35.33702 | -85.69780 | 25918 ft | 557 kts | 27° |
| 2026-04-25 02:27 | 35.37112 | -85.67534 | 25918 ft | 556 kts | 25° |
| 2026-04-25 02:27 | 35.40649 | -85.65595 | 25917 ft | 556 kts | 23° |
| 2026-04-25 02:28 | 35.44078 | -85.63390 | 25930 ft | 557 kts | 28° |
| 2026-04-25 02:28 | 35.47525 | -85.61242 | 25926 ft | 555 kts | 23° |
| 2026-04-25 02:28 | 35.51044 | -85.59278 | 25919 ft | 556 kts | 26° |
| 2026-04-25 02:28 | 35.54447 | -85.56993 | 25925 ft | 556 kts | 27° |
| 2026-04-25 02:29 | 35.57946 | -85.54960 | 25924 ft | 555 kts | 22° |
| 2026-04-25 02:29 | 35.61423 | -85.52894 | 25919 ft | 556 kts | 27° |
| 2026-04-25 02:29 | 35.64826 | -85.50621 | 25913 ft | 556 kts | 25° |
| 2026-04-25 02:29 | 35.68340 | -85.48673 | 25926 ft | 555 kts | 23° |
| 2026-04-25 02:30 | 35.71774 | -85.46474 | 25919 ft | 556 kts | 28° |
| 2026-04-25 02:30 | 35.75214 | -85.44288 | 25918 ft | 556 kts | 23° |
| 2026-04-25 02:30 | 35.78733 | -85.42320 | 25917 ft | 556 kts | 25° |
| 2026-04-25 02:30 | 35.82086 | -85.40059 | 25927 ft | 557 kts | 27° |
| 2026-04-25 02:31 | 35.85620 | -85.37963 | 25918 ft | 556 kts | 22° |
| 2026-04-25 02:31 | 35.89065 | -85.35928 | 25920 ft | 557 kts | 27° |
| 2026-04-25 02:31 | 35.92462 | -85.33629 | 25917 ft | 557 kts | 25° |
| 2026-04-25 02:31 | 35.95992 | -85.31645 | 25946 ft | 556 kts | 23° |
| 2026-04-25 02:32 | 35.99438 | -85.29448 | 25951 ft | 557 kts | 28° |
| 2026-04-25 02:32 | 36.02862 | -85.27228 | 25949 ft | 556 kts | 24° |
| 2026-04-25 02:32 | 36.06388 | -85.25252 | 25948 ft | 557 kts | 25° |
| 2026-04-25 02:32 | 36.09792 | -85.22949 | 25951 ft | 557 kts | 28° |
| 2026-04-25 02:33 | 36.13279 | -85.20844 | 25943 ft | 556 kts | 22° |
| 2026-04-25 02:33 | 36.16772 | -85.18781 | 25939 ft | 557 kts | 27° |
| 2026-04-25 02:33 | 36.20169 | -85.16459 | 25934 ft | 557 kts | 26° |
| 2026-04-25 02:33 | 36.23683 | -85.14463 | 25934 ft | 556 kts | 22° |
| 2026-04-25 02:34 | 36.27127 | -85.12263 | 25924 ft | 557 kts | 28° |
| 2026-04-25 02:34 | 36.30558 | -85.10010 | 25917 ft | 556 kts | 24° |
| 2026-04-25 02:34 | 36.34081 | -85.08024 | 25917 ft | 557 kts | 25° |
| 2026-04-25 02:34 | 36.37476 | -85.05711 | 25918 ft | 558 kts | 28° |
| 2026-04-25 02:35 | 36.40911 | -85.03616 | 25915 ft | 556 kts | 22° |
| 2026-04-25 02:35 | 36.44402 | -85.01545 | 25916 ft | 557 kts | 27° |
| 2026-04-25 02:35 | 36.47797 | -84.99197 | 25914 ft | 557 kts | 26° |
| 2026-04-25 02:35 | 36.51319 | -84.97200 | 25920 ft | 556 kts | 22° |
| 2026-04-25 02:36 | 36.54826 | -84.95153 | 25910 ft | 556 kts | 20° |
| 2026-04-25 02:36 | 36.58505 | -84.93745 | 25910 ft | 554 kts | 11° |
| 2026-04-25 02:36 | 36.62317 | -84.93088 | 25925 ft | 552 kts | 3° |
| 2026-04-25 02:36 | 36.66139 | -84.92699 | 25929 ft | 553 kts | 4° |
| 2026-04-25 02:37 | 36.69954 | -84.91910 | 25933 ft | 554 kts | 9° |
| 2026-04-25 02:37 | 36.73751 | -84.91106 | 25929 ft | 552 kts | 5° |
| 2026-04-25 02:37 | 36.77573 | -84.90611 | 25935 ft | 553 kts | 6° |
| 2026-04-25 02:37 | 36.81363 | -84.89772 | 25937 ft | 554 kts | 9° |
| 2026-04-25 02:38 | 36.85175 | -84.89089 | 25933 ft | 552 kts | 4° |
| 2026-04-25 02:38 | 36.88992 | -84.88524 | 25933 ft | 554 kts | 7° |
| 2026-04-25 02:38 | 36.92779 | -84.87641 | 25934 ft | 554 kts | 7° |
| 2026-04-25 02:38 | 36.96598 | -84.87083 | 25933 ft | 552 kts | 3° |
| 2026-04-25 02:39 | 37.00410 | -84.86392 | 25926 ft | 554 kts | 8° |
| 2026-04-25 02:39 | 37.04208 | -84.85552 | 25919 ft | 553 kts | 5° |
| 2026-04-25 02:39 | 37.08037 | -84.85049 | 25907 ft | 553 kts | 5° |
| 2026-04-25 02:39 | 37.11836 | -84.84231 | 25903 ft | 554 kts | 9° |
| 2026-04-25 02:40 | 37.15647 | -84.83504 | 25902 ft | 552 kts | 4° |
| 2026-04-25 02:40 | 37.19474 | -84.82958 | 25897 ft | 554 kts | 7° |
| 2026-04-25 02:40 | 37.23267 | -84.82069 | 25897 ft | 554 kts | 8° |
| 2026-04-25 02:40 | 37.27041 | -84.81482 | 25899 ft | 552 kts | 3° |
| 2026-04-25 02:41 | 37.30902 | -84.80816 | 25902 ft | 554 kts | 8° |
| 2026-04-25 02:41 | 37.34646 | -84.79959 | 25902 ft | 554 kts | 6° |
| 2026-04-25 02:41 | 37.38474 | -84.79443 | 25911 ft | 553 kts | 4° |
| 2026-04-25 02:41 | 37.42283 | -84.78649 | 25918 ft | 555 kts | 9° |
| 2026-04-25 02:42 | 37.46091 | -84.77881 | 25921 ft | 553 kts | 4° |
| 2026-04-25 02:42 | 37.49919 | -84.77349 | 25918 ft | 555 kts | 6° |
| 2026-04-25 02:42 | 37.53721 | -84.76462 | 25928 ft | 555 kts | 8° |
| 2026-04-25 02:42 | 37.57543 | -84.75831 | 25932 ft | 554 kts | 3° |
| 2026-04-25 02:43 | 37.61366 | -84.75196 | 25923 ft | 556 kts | 8° |
| 2026-04-25 02:43 | 37.65178 | -84.74306 | 25924 ft | 555 kts | 6° |
| 2026-04-25 02:43 | 37.67718 | -84.73935 | 25921 ft | 555 kts | 3° |
| 2026-04-25 02:43 | 37.71555 | -84.73305 | 25916 ft | 557 kts | 8° |
| 2026-04-25 02:44 | 37.75370 | -84.72409 | 25902 ft | 557 kts | 6° |
| 2026-04-25 02:44 | 37.79217 | -84.71870 | 25901 ft | 556 kts | 4° |
| 2026-04-25 02:44 | 37.83047 | -84.71096 | 25901 ft | 558 kts | 9° |
| 2026-04-25 02:44 | 37.86876 | -84.70285 | 25905 ft | 557 kts | 5° |
| 2026-04-25 02:45 | 37.90732 | -84.69754 | 25917 ft | 557 kts | 6° |
| 2026-04-25 02:45 | 37.94551 | -84.68868 | 25926 ft | 558 kts | 9° |
| 2026-04-25 02:45 | 37.98391 | -84.68194 | 25930 ft | 557 kts | 3° |
| 2026-04-25 02:45 | 38.02246 | -84.67575 | 25925 ft | 559 kts | 8° |
| 2026-04-25 02:46 | 38.06071 | -84.66663 | 25925 ft | 559 kts | 7° |
| 2026-04-25 02:46 | 38.09886 | -84.66111 | 25930 ft | 558 kts | 4° |
| 2026-04-25 02:46 | 38.13730 | -84.65357 | 25924 ft | 560 kts | 9° |
| 2026-04-25 02:46 | 38.17565 | -84.64507 | 25913 ft | 559 kts | 5° |
| 2026-04-25 02:47 | 38.21431 | -84.63978 | 25907 ft | 559 kts | 5° |
| 2026-04-25 02:47 | 38.25265 | -84.63102 | 25898 ft | 561 kts | 9° |
| 2026-04-25 02:47 | 38.29118 | -84.62383 | 25884 ft | 559 kts | 4° |
| 2026-04-25 02:47 | 38.32988 | -84.61786 | 25876 ft | 561 kts | 7° |
| 2026-04-25 02:48 | 38.36819 | -84.60860 | 25870 ft | 561 kts | 7° |
| 2026-04-25 02:48 | 38.40698 | -84.60272 | 25865 ft | 559 kts | 3° |
| 2026-04-25 02:48 | 38.44555 | -84.59537 | 25858 ft | 562 kts | 9° |
| 2026-04-25 02:48 | 38.48400 | -84.58665 | 25854 ft | 560 kts | 5° |
| 2026-04-25 02:49 | 38.52285 | -84.58128 | 25855 ft | 561 kts | 5° |
| 2026-04-25 02:49 | 38.56134 | -84.57255 | 25858 ft | 562 kts | 9° |
| 2026-04-25 02:49 | 38.59992 | -84.56509 | 25856 ft | 560 kts | 4° |
| 2026-04-25 02:49 | 38.63870 | -84.55920 | 25854 ft | 562 kts | 7° |
| 2026-04-25 02:50 | 38.67718 | -84.54982 | 25856 ft | 562 kts | 8° |
| 2026-04-25 02:50 | 38.71588 | -84.54373 | 25861 ft | 561 kts | 3° |
| 2026-04-25 02:50 | 38.75456 | -84.53654 | 25865 ft | 563 kts | 8° |
| 2026-04-25 02:50 | 38.79309 | -84.52757 | 25872 ft | 562 kts | 5° |
| 2026-04-25 02:51 | 38.83191 | -84.52214 | 25876 ft | 562 kts | 5° |
| 2026-04-25 02:51 | 38.87049 | -84.51351 | 25886 ft | 563 kts | 9° |
| 2026-04-25 02:51 | 38.90915 | -84.50574 | 25885 ft | 562 kts | 4° |
| 2026-04-25 02:51 | 38.94798 | -84.49992 | 25890 ft | 563 kts | 7° |
| 2026-04-25 02:52 | 38.98605 | -84.49058 | 25902 ft | 564 kts | 8° |
| 2026-04-25 02:52 | 39.02487 | -84.48419 | 25909 ft | 562 kts | 3° |
| 2026-04-25 02:52 | 39.06373 | -84.47715 | 25912 ft | 564 kts | 8° |
| 2026-04-25 02:52 | 39.10229 | -84.46796 | 25907 ft | 563 kts | 6° |
| 2026-04-25 02:53 | 39.14123 | -84.46242 | 25908 ft | 562 kts | 4° |
| 2026-04-25 02:53 | 39.17990 | -84.45390 | 25911 ft | 564 kts | 9° |
| 2026-04-25 02:53 | 39.21851 | -84.44582 | 25902 ft | 562 kts | 4° |
| 2026-04-25 02:53 | 39.25741 | -84.44007 | 25898 ft | 563 kts | 7° |
| 2026-04-25 02:54 | 39.29597 | -84.43059 | 25908 ft | 563 kts | 8° |
| 2026-04-25 02:54 | 39.33477 | -84.42399 | 25910 ft | 561 kts | 4° |
| 2026-04-25 02:54 | 39.37352 | -84.41709 | 25908 ft | 563 kts | 8° |
| 2026-04-25 02:54 | 39.41208 | -84.40772 | 25905 ft | 563 kts | 6° |
| 2026-04-25 02:55 | 39.45094 | -84.40209 | 25899 ft | 562 kts | 4° |
| 2026-04-25 02:55 | 39.48949 | -84.39370 | 25899 ft | 564 kts | 9° |
| 2026-04-25 02:55 | 39.52816 | -84.38541 | 25897 ft | 562 kts | 5° |
| 2026-04-25 02:55 | 39.56711 | -84.37964 | 25895 ft | 563 kts | 7° |
| 2026-04-25 02:56 | 39.60558 | -84.37013 | 25902 ft | 563 kts | 9° |
| 2026-04-25 02:56 | 39.64439 | -84.36339 | 25897 ft | 561 kts | 4° |
| 2026-04-25 02:56 | 39.68311 | -84.35648 | 25874 ft | 563 kts | 8° |
| 2026-04-25 02:56 | 39.72161 | -84.34700 | 25869 ft | 562 kts | 6° |
| 2026-04-25 02:57 | 39.75997 | -84.34145 | 25873 ft | 561 kts | 4° |
| 2026-04-25 02:57 | 39.79856 | -84.33291 | 25874 ft | 563 kts | 9° |
| 2026-04-25 02:57 | 39.83710 | -84.32461 | 25878 ft | 561 kts | 4° |
| 2026-04-25 02:57 | 39.87592 | -84.31883 | 25877 ft | 563 kts | 7° |
| 2026-04-25 02:58 | 39.91387 | -84.30581 | 25874 ft | 566 kts | 17° |
| 2026-04-25 02:58 | 39.95073 | -84.28730 | 25887 ft | 567 kts | 20° |
| 2026-04-25 02:58 | 39.98617 | -84.26462 | 25875 ft | 569 kts | 29° |
| 2026-04-25 02:58 | 40.01970 | -84.23712 | 25885 ft | 570 kts | 31° |
| 2026-04-25 02:59 | 40.05419 | -84.21152 | 25872 ft | 569 kts | 25° |
| 2026-04-25 02:59 | 40.08963 | -84.18833 | 25863 ft | 570 kts | 27° |
| 2026-04-25 02:59 | 40.12362 | -84.16139 | 25864 ft | 571 kts | 30° |
| 2026-04-25 02:59 | 40.15861 | -84.13682 | 25855 ft | 570 kts | 24° |
| 2026-04-25 03:00 | 40.19371 | -84.11240 | 25852 ft | 572 kts | 29° |
| 2026-04-25 03:00 | 40.22725 | -84.08566 | 25857 ft | 572 kts | 27° |
| 2026-04-25 03:00 | 40.26322 | -84.06195 | 25867 ft | 572 kts | 25° |
| 2026-04-25 03:00 | 40.29730 | -84.03627 | 25876 ft | 573 kts | 30° |
| 2026-04-25 03:01 | 40.33227 | -84.01012 | 25877 ft | 571 kts | 25° |
| 2026-04-25 03:01 | 40.36796 | -83.98689 | 25881 ft | 572 kts | 26° |
| 2026-04-25 03:01 | 40.40227 | -83.96023 | 25889 ft | 573 kts | 30° |
| 2026-04-25 03:01 | 40.43686 | -83.93592 | 25885 ft | 571 kts | 24° |
| 2026-04-25 03:02 | 40.47222 | -83.91183 | 25882 ft | 573 kts | 28° |
| 2026-04-25 03:02 | 40.50639 | -83.88493 | 25878 ft | 573 kts | 28° |
| 2026-04-25 03:02 | 40.51726 | -83.87725 | 25874 ft | 572 kts | 26° |